sensor_id;sensor_type;location;lat;lon;timestamp;P1;durP1;ratioP1;P2;durP2;ratioP2
35188;SDS011;21762;54.480;18.556;2023-06-04T00:00:10;6.07;;;2.90;;
35188;SDS011;21762;54.480;18.556;2023-06-04T00:02:39;7.93;;;2.92;;
35188;SDS011;21762;54.480;18.556;2023-06-04T00:05:08;4.55;;;2.50;;
35188;SDS011;21762;54.480;18.556;2023-06-04T00:07:38;8.50;;;2.95;;
35188;SDS011;21762;54.480;18.556;2023-06-04T00:10:07;6.20;;;3.10;;
35188;SDS011;21762;54.480;18.556;2023-06-04T00:12:37;11.88;;;2.55;;
35188;SDS011;21762;54.480;18.556;2023-06-04T00:15:06;5.18;;;2.60;;
35188;SDS011;21762;54.480;18.556;2023-06-04T00:17:35;8.73;;;2.80;;
35188;SDS011;21762;54.480;18.556;2023-06-04T00:20:04;10.60;;;2.58;;
35188;SDS011;21762;54.480;18.556;2023-06-04T00:22:33;5.45;;;2.25;;
35188;SDS011;21762;54.480;18.556;2023-06-04T00:25:04;6.95;;;2.50;;
35188;SDS011;21762;54.480;18.556;2023-06-04T00:27:32;6.85;;;2.63;;
35188;SDS011;21762;54.480;18.556;2023-06-04T00:30:01;6.50;;;2.80;;
35188;SDS011;21762;54.480;18.556;2023-06-04T00:32:31;7.47;;;2.97;;
35188;SDS011;21762;54.480;18.556;2023-06-04T00:34:59;8.23;;;3.92;;
35188;SDS011;21762;54.480;18.556;2023-06-04T00:37:28;12.07;;;4.80;;
35188;SDS011;21762;54.480;18.556;2023-06-04T00:39:57;10.38;;;4.10;;
35188;SDS011;21762;54.480;18.556;2023-06-04T00:42:29;13.02;;;3.95;;
35188;SDS011;21762;54.480;18.556;2023-06-04T00:44:57;9.10;;;3.17;;
35188;SDS011;21762;54.480;18.556;2023-06-04T00:47:27;13.57;;;3.33;;
35188;SDS011;21762;54.480;18.556;2023-06-04T00:49:56;5.32;;;2.85;;
35188;SDS011;21762;54.480;18.556;2023-06-04T00:52:26;7.07;;;3.35;;
35188;SDS011;21762;54.480;18.556;2023-06-04T00:54:54;10.07;;;2.58;;
35188;SDS011;21762;54.480;18.556;2023-06-04T00:57:23;7.30;;;2.97;;
35188;SDS011;21762;54.480;18.556;2023-06-04T00:59:53;7.68;;;2.28;;
35188;SDS011;21762;54.480;18.556;2023-06-04T01:02:22;6.50;;;2.33;;
35188;SDS011;21762;54.480;18.556;2023-06-04T01:04:53;8.00;;;2.70;;
35188;SDS011;21762;54.480;18.556;2023-06-04T01:07:24;5.20;;;1.95;;
35188;SDS011;21762;54.480;18.556;2023-06-04T01:09:54;4.43;;;2.47;;
35188;SDS011;21762;54.480;18.556;2023-06-04T01:12:23;6.47;;;2.35;;
35188;SDS011;21762;54.480;18.556;2023-06-04T01:14:53;9.05;;;2.13;;
35188;SDS011;21762;54.480;18.556;2023-06-04T01:17:23;5.88;;;2.15;;
35188;SDS011;21762;54.480;18.556;2023-06-04T01:20:04;11.30;;;3.22;;
35188;SDS011;21762;54.480;18.556;2023-06-04T01:22:42;6.40;;;2.17;;
35188;SDS011;21762;54.480;18.556;2023-06-04T01:25:12;8.07;;;2.35;;
35188;SDS011;21762;54.480;18.556;2023-06-04T01:27:49;6.60;;;2.47;;
35188;SDS011;21762;54.480;18.556;2023-06-04T01:30:23;4.28;;;1.92;;
35188;SDS011;21762;54.480;18.556;2023-06-04T01:32:54;6.00;;;2.42;;
35188;SDS011;21762;54.480;18.556;2023-06-04T01:35:23;7.38;;;2.20;;
35188;SDS011;21762;54.480;18.556;2023-06-04T01:37:54;5.43;;;2.00;;
35188;SDS011;21762;54.480;18.556;2023-06-04T01:40:23;5.78;;;2.42;;
35188;SDS011;21762;54.480;18.556;2023-06-04T01:42:53;5.38;;;2.88;;
35188;SDS011;21762;54.480;18.556;2023-06-04T01:45:24;9.55;;;3.00;;
35188;SDS011;21762;54.480;18.556;2023-06-04T01:47:54;7.60;;;2.60;;
35188;SDS011;21762;54.480;18.556;2023-06-04T01:50:23;5.28;;;2.20;;
35188;SDS011;21762;54.480;18.556;2023-06-04T01:52:53;5.85;;;3.17;;
35188;SDS011;21762;54.480;18.556;2023-06-04T01:55:22;11.40;;;3.20;;
35188;SDS011;21762;54.480;18.556;2023-06-04T01:57:51;8.88;;;2.53;;
35188;SDS011;21762;54.480;18.556;2023-06-04T02:00:20;6.55;;;2.53;;
35188;SDS011;21762;54.480;18.556;2023-06-04T02:02:50;6.70;;;2.42;;
35188;SDS011;21762;54.480;18.556;2023-06-04T02:05:20;7.43;;;2.30;;
35188;SDS011;21762;54.480;18.556;2023-06-04T02:07:49;5.25;;;2.30;;
35188;SDS011;21762;54.480;18.556;2023-06-04T02:10:18;10.48;;;3.25;;
35188;SDS011;21762;54.480;18.556;2023-06-04T02:12:54;7.97;;;3.05;;
35188;SDS011;21762;54.480;18.556;2023-06-04T02:15:25;7.63;;;2.88;;
35188;SDS011;21762;54.480;18.556;2023-06-04T02:17:57;9.48;;;2.97;;
35188;SDS011;21762;54.480;18.556;2023-06-04T02:20:26;7.28;;;3.53;;
35188;SDS011;21762;54.480;18.556;2023-06-04T02:22:56;7.22;;;3.70;;
35188;SDS011;21762;54.480;18.556;2023-06-04T02:25:25;9.40;;;3.67;;
35188;SDS011;21762;54.480;18.556;2023-06-04T02:27:55;9.80;;;4.05;;
35188;SDS011;21762;54.480;18.556;2023-06-04T02:30:23;9.00;;;3.50;;
35188;SDS011;21762;54.480;18.556;2023-06-04T02:32:52;9.27;;;3.40;;
35188;SDS011;21762;54.480;18.556;2023-06-04T02:35:23;8.98;;;3.20;;
35188;SDS011;21762;54.480;18.556;2023-06-04T02:37:51;6.43;;;3.00;;
35188;SDS011;21762;54.480;18.556;2023-06-04T02:40:20;8.10;;;2.95;;
35188;SDS011;21762;54.480;18.556;2023-06-04T02:42:49;6.30;;;2.55;;
35188;SDS011;21762;54.480;18.556;2023-06-04T02:45:17;7.40;;;2.75;;
35188;SDS011;21762;54.480;18.556;2023-06-04T02:47:46;5.88;;;3.22;;
35188;SDS011;21762;54.480;18.556;2023-06-04T02:50:15;6.40;;;2.50;;
35188;SDS011;21762;54.480;18.556;2023-06-04T02:52:45;8.98;;;2.30;;
35188;SDS011;21762;54.480;18.556;2023-06-04T02:55:14;6.50;;;2.72;;
35188;SDS011;21762;54.480;18.556;2023-06-04T02:57:42;4.00;;;2.20;;
35188;SDS011;21762;54.480;18.556;2023-06-04T03:00:12;3.50;;;2.08;;
35188;SDS011;21762;54.480;18.556;2023-06-04T03:02:42;3.85;;;2.47;;
35188;SDS011;21762;54.480;18.556;2023-06-04T03:05:12;5.22;;;2.22;;
35188;SDS011;21762;54.480;18.556;2023-06-04T03:07:42;7.13;;;2.45;;
35188;SDS011;21762;54.480;18.556;2023-06-04T03:10:13;4.68;;;1.75;;
35188;SDS011;21762;54.480;18.556;2023-06-04T03:12:43;5.05;;;2.05;;
35188;SDS011;21762;54.480;18.556;2023-06-04T03:15:12;2.85;;;1.80;;
35188;SDS011;21762;54.480;18.556;2023-06-04T03:17:40;3.25;;;1.58;;
35188;SDS011;21762;54.480;18.556;2023-06-04T03:20:09;4.50;;;1.83;;
35188;SDS011;21762;54.480;18.556;2023-06-04T03:22:38;3.92;;;1.88;;
35188;SDS011;21762;54.480;18.556;2023-06-04T03:25:09;5.03;;;1.90;;
35188;SDS011;21762;54.480;18.556;2023-06-04T03:27:38;3.15;;;1.73;;
35188;SDS011;21762;54.480;18.556;2023-06-04T03:30:07;6.53;;;1.70;;
35188;SDS011;21762;54.480;18.556;2023-06-04T03:33:06;4.53;;;1.83;;
35188;SDS011;21762;54.480;18.556;2023-06-04T03:35:35;5.03;;;1.70;;
35188;SDS011;21762;54.480;18.556;2023-06-04T03:38:03;7.93;;;2.30;;
35188;SDS011;21762;54.480;18.556;2023-06-04T03:40:34;5.03;;;2.03;;
35188;SDS011;21762;54.480;18.556;2023-06-04T03:43:04;2.22;;;1.10;;
35188;SDS011;21762;54.480;18.556;2023-06-04T03:45:33;3.33;;;1.52;;
35188;SDS011;21762;54.480;18.556;2023-06-04T03:48:02;5.50;;;1.58;;
35188;SDS011;21762;54.480;18.556;2023-06-04T03:50:32;4.32;;;1.77;;
35188;SDS011;21762;54.480;18.556;2023-06-04T03:53:00;2.30;;;1.08;;
35188;SDS011;21762;54.480;18.556;2023-06-04T03:55:34;1.45;;;1.10;;
35188;SDS011;21762;54.480;18.556;2023-06-04T03:58:06;3.50;;;1.58;;
35188;SDS011;21762;54.480;18.556;2023-06-04T04:03:07;3.58;;;1.08;;
35188;SDS011;21762;54.480;18.556;2023-06-04T04:05:36;3.75;;;1.48;;
35188;SDS011;21762;54.480;18.556;2023-06-04T04:08:05;3.05;;;1.60;;
35188;SDS011;21762;54.480;18.556;2023-06-04T04:10:37;3.03;;;1.30;;
35188;SDS011;21762;54.480;18.556;2023-06-04T04:13:05;2.92;;;1.42;;
35188;SDS011;21762;54.480;18.556;2023-06-04T04:15:37;4.53;;;1.42;;
35188;SDS011;21762;54.480;18.556;2023-06-04T04:18:06;2.50;;;1.20;;
35188;SDS011;21762;54.480;18.556;2023-06-04T04:20:37;3.53;;;1.73;;
35188;SDS011;21762;54.480;18.556;2023-06-04T04:23:09;3.95;;;1.73;;
35188;SDS011;21762;54.480;18.556;2023-06-04T04:25:42;6.50;;;1.50;;
35188;SDS011;21762;54.480;18.556;2023-06-04T04:28:12;5.47;;;1.13;;
35188;SDS011;21762;54.480;18.556;2023-06-04T04:30:41;6.35;;;1.50;;
35188;SDS011;21762;54.480;18.556;2023-06-04T04:33:12;5.30;;;1.53;;
35188;SDS011;21762;54.480;18.556;2023-06-04T04:35:45;2.65;;;1.10;;
35188;SDS011;21762;54.480;18.556;2023-06-04T04:38:17;5.43;;;1.40;;
35188;SDS011;21762;54.480;18.556;2023-06-04T04:40:53;6.97;;;2.10;;
35188;SDS011;21762;54.480;18.556;2023-06-04T04:43:28;2.90;;;1.25;;
35188;SDS011;21762;54.480;18.556;2023-06-04T04:46:02;5.85;;;1.33;;
35188;SDS011;21762;54.480;18.556;2023-06-04T04:48:31;2.50;;;1.42;;
35188;SDS011;21762;54.480;18.556;2023-06-04T04:51:00;2.75;;;1.33;;
35188;SDS011;21762;54.480;18.556;2023-06-04T04:53:29;4.95;;;1.70;;
35188;SDS011;21762;54.480;18.556;2023-06-04T04:56:00;2.92;;;1.23;;
35188;SDS011;21762;54.480;18.556;2023-06-04T04:58:30;3.42;;;1.33;;
35188;SDS011;21762;54.480;18.556;2023-06-04T05:01:00;3.72;;;1.27;;
35188;SDS011;21762;54.480;18.556;2023-06-04T05:03:28;2.60;;;1.48;;
35188;SDS011;21762;54.480;18.556;2023-06-04T05:05:57;1.77;;;1.17;;
35188;SDS011;21762;54.480;18.556;2023-06-04T05:08:26;3.90;;;1.10;;
35188;SDS011;21762;54.480;18.556;2023-06-04T05:10:54;2.30;;;1.00;;
35188;SDS011;21762;54.480;18.556;2023-06-04T05:13:25;1.92;;;1.10;;
35188;SDS011;21762;54.480;18.556;2023-06-04T05:15:59;2.97;;;1.35;;
35188;SDS011;21762;54.480;18.556;2023-06-04T05:18:36;3.47;;;1.60;;
35188;SDS011;21762;54.480;18.556;2023-06-04T05:21:10;2.67;;;1.35;;
35188;SDS011;21762;54.480;18.556;2023-06-04T05:23:45;2.53;;;1.15;;
35188;SDS011;21762;54.480;18.556;2023-06-04T05:26:16;2.60;;;1.33;;
35188;SDS011;21762;54.480;18.556;2023-06-04T05:28:51;3.85;;;1.30;;
35188;SDS011;21762;54.480;18.556;2023-06-04T05:31:21;7.00;;;1.53;;
35188;SDS011;21762;54.480;18.556;2023-06-04T05:33:54;2.80;;;1.10;;
35188;SDS011;21762;54.480;18.556;2023-06-04T05:36:26;2.30;;;1.30;;
35188;SDS011;21762;54.480;18.556;2023-06-04T05:38:57;4.15;;;1.02;;
35188;SDS011;21762;54.480;18.556;2023-06-04T05:41:35;2.33;;;1.30;;
35188;SDS011;21762;54.480;18.556;2023-06-04T05:44:07;3.00;;;1.05;;
35188;SDS011;21762;54.480;18.556;2023-06-04T05:46:36;5.07;;;1.40;;
35188;SDS011;21762;54.480;18.556;2023-06-04T05:49:05;2.50;;;1.23;;
35188;SDS011;21762;54.480;18.556;2023-06-04T05:51:33;1.52;;;0.98;;
35188;SDS011;21762;54.480;18.556;2023-06-04T05:54:03;3.95;;;0.82;;
35188;SDS011;21762;54.480;18.556;2023-06-04T05:59:03;2.95;;;1.15;;
35188;SDS011;21762;54.480;18.556;2023-06-04T06:01:33;1.90;;;0.80;;
35188;SDS011;21762;54.480;18.556;2023-06-04T06:04:03;1.17;;;0.63;;
35188;SDS011;21762;54.480;18.556;2023-06-04T06:06:33;1.27;;;0.88;;
35188;SDS011;21762;54.480;18.556;2023-06-04T06:09:02;1.73;;;0.68;;
35188;SDS011;21762;54.480;18.556;2023-06-04T06:11:33;1.52;;;0.77;;
35188;SDS011;21762;54.480;18.556;2023-06-04T06:14:01;4.32;;;0.60;;
35188;SDS011;21762;54.480;18.556;2023-06-04T06:16:30;2.28;;;0.80;;
35188;SDS011;21762;54.480;18.556;2023-06-04T06:19:01;0.90;;;0.70;;
35188;SDS011;21762;54.480;18.556;2023-06-04T06:21:30;1.60;;;0.47;;
35188;SDS011;21762;54.480;18.556;2023-06-04T06:24:00;11.77;;;2.67;;
35188;SDS011;21762;54.480;18.556;2023-06-04T06:26:30;2.40;;;0.93;;
35188;SDS011;21762;54.480;18.556;2023-06-04T06:29:00;6.57;;;0.80;;
35188;SDS011;21762;54.480;18.556;2023-06-04T06:31:30;3.20;;;0.70;;
35188;SDS011;21762;54.480;18.556;2023-06-04T06:33:59;2.75;;;0.77;;
35188;SDS011;21762;54.480;18.556;2023-06-04T06:36:29;2.15;;;0.73;;
35188;SDS011;21762;54.480;18.556;2023-06-04T06:41:28;2.58;;;0.60;;
35188;SDS011;21762;54.480;18.556;2023-06-04T06:43:57;1.25;;;0.73;;
35188;SDS011;21762;54.480;18.556;2023-06-04T06:46:26;3.28;;;0.80;;
35188;SDS011;21762;54.480;18.556;2023-06-04T06:48:55;2.40;;;0.60;;
35188;SDS011;21762;54.480;18.556;2023-06-04T06:51:23;0.65;;;0.50;;
35188;SDS011;21762;54.480;18.556;2023-06-04T06:53:58;1.95;;;0.75;;
35188;SDS011;21762;54.480;18.556;2023-06-04T06:56:27;2.72;;;0.70;;
35188;SDS011;21762;54.480;18.556;2023-06-04T06:58:57;1.15;;;0.50;;
35188;SDS011;21762;54.480;18.556;2023-06-04T07:01:26;3.47;;;0.60;;
35188;SDS011;21762;54.480;18.556;2023-06-04T07:03:55;0.70;;;0.60;;
35188;SDS011;21762;54.480;18.556;2023-06-04T07:06:23;0.98;;;0.60;;
35188;SDS011;21762;54.480;18.556;2023-06-04T07:08:52;1.38;;;0.57;;
35188;SDS011;21762;54.480;18.556;2023-06-04T07:11:22;2.22;;;0.50;;
35188;SDS011;21762;54.480;18.556;2023-06-04T07:13:52;3.65;;;0.45;;
35188;SDS011;21762;54.480;18.556;2023-06-04T07:16:21;3.95;;;1.02;;
35188;SDS011;21762;54.480;18.556;2023-06-04T07:18:50;3.45;;;1.30;;
35188;SDS011;21762;54.480;18.556;2023-06-04T07:21:19;1.00;;;0.85;;
35188;SDS011;21762;54.480;18.556;2023-06-04T07:23:50;2.42;;;0.70;;
35188;SDS011;21762;54.480;18.556;2023-06-04T07:26:19;3.03;;;0.75;;
35188;SDS011;21762;54.480;18.556;2023-06-04T07:28:50;4.82;;;0.40;;
35188;SDS011;21762;54.480;18.556;2023-06-04T07:31:19;2.03;;;0.80;;
35188;SDS011;21762;54.480;18.556;2023-06-04T07:33:50;2.03;;;0.60;;
35188;SDS011;21762;54.480;18.556;2023-06-04T07:36:19;2.05;;;1.38;;
35188;SDS011;21762;54.480;18.556;2023-06-04T07:38:49;7.13;;;1.40;;
35188;SDS011;21762;54.480;18.556;2023-06-04T07:41:18;1.58;;;0.90;;
35188;SDS011;21762;54.480;18.556;2023-06-04T07:43:47;6.25;;;1.60;;
35188;SDS011;21762;54.480;18.556;2023-06-04T07:46:17;2.85;;;1.05;;
35188;SDS011;21762;54.480;18.556;2023-06-04T07:48:46;4.45;;;0.98;;
35188;SDS011;21762;54.480;18.556;2023-06-04T07:51:15;1.05;;;0.60;;
35188;SDS011;21762;54.480;18.556;2023-06-04T07:53:45;1.30;;;0.93;;
35188;SDS011;21762;54.480;18.556;2023-06-04T07:56:14;1.67;;;0.85;;
35188;SDS011;21762;54.480;18.556;2023-06-04T07:58:43;1.88;;;0.77;;
35188;SDS011;21762;54.480;18.556;2023-06-04T08:01:12;1.63;;;1.08;;
35188;SDS011;21762;54.480;18.556;2023-06-04T08:03:42;4.05;;;0.70;;
35188;SDS011;21762;54.480;18.556;2023-06-04T08:06:11;2.25;;;0.73;;
35188;SDS011;21762;54.480;18.556;2023-06-04T08:08:42;1.02;;;0.47;;
35188;SDS011;21762;54.480;18.556;2023-06-04T08:11:12;0.63;;;0.50;;
35188;SDS011;21762;54.480;18.556;2023-06-04T08:13:42;1.70;;;0.85;;
35188;SDS011;21762;54.480;18.556;2023-06-04T08:16:11;1.33;;;0.80;;
35188;SDS011;21762;54.480;18.556;2023-06-04T08:19:01;2.80;;;0.77;;
35188;SDS011;21762;54.480;18.556;2023-06-04T08:21:50;3.55;;;0.95;;
35188;SDS011;21762;54.480;18.556;2023-06-04T08:24:34;2.35;;;0.70;;
35188;SDS011;21762;54.480;18.556;2023-06-04T08:27:23;2.83;;;0.80;;
35188;SDS011;21762;54.480;18.556;2023-06-04T08:30:12;4.43;;;0.77;;
35188;SDS011;21762;54.480;18.556;2023-06-04T08:33:01;1.40;;;0.90;;
35188;SDS011;21762;54.480;18.556;2023-06-04T08:35:46;1.98;;;0.85;;
35188;SDS011;21762;54.480;18.556;2023-06-04T08:38:15;2.53;;;0.95;;
35188;SDS011;21762;54.480;18.556;2023-06-04T08:40:44;1.77;;;1.08;;
35188;SDS011;21762;54.480;18.556;2023-06-04T08:43:13;2.85;;;0.90;;
35188;SDS011;21762;54.480;18.556;2023-06-04T08:45:42;3.00;;;1.02;;
35188;SDS011;21762;54.480;18.556;2023-06-04T08:48:11;5.53;;;0.98;;
35188;SDS011;21762;54.480;18.556;2023-06-04T08:50:41;2.55;;;0.82;;
35188;SDS011;21762;54.480;18.556;2023-06-04T08:53:13;3.97;;;0.73;;
35188;SDS011;21762;54.480;18.556;2023-06-04T08:55:43;6.22;;;1.10;;
35188;SDS011;21762;54.480;18.556;2023-06-04T08:58:12;2.35;;;1.05;;
35188;SDS011;21762;54.480;18.556;2023-06-04T09:00:42;5.82;;;1.08;;
35188;SDS011;21762;54.480;18.556;2023-06-04T09:03:12;3.13;;;1.13;;
35188;SDS011;21762;54.480;18.556;2023-06-04T09:05:44;2.70;;;1.20;;
35188;SDS011;21762;54.480;18.556;2023-06-04T09:08:17;3.05;;;0.93;;
35188;SDS011;21762;54.480;18.556;2023-06-04T09:10:47;1.58;;;1.10;;
35188;SDS011;21762;54.480;18.556;2023-06-04T09:13:18;2.60;;;0.95;;
35188;SDS011;21762;54.480;18.556;2023-06-04T09:15:58;2.30;;;0.77;;
35188;SDS011;21762;54.480;18.556;2023-06-04T09:18:31;2.10;;;0.75;;
35188;SDS011;21762;54.480;18.556;2023-06-04T09:21:01;2.78;;;0.80;;
35188;SDS011;21762;54.480;18.556;2023-06-04T09:23:36;1.30;;;0.90;;
35188;SDS011;21762;54.480;18.556;2023-06-04T09:26:10;3.00;;;0.88;;
35188;SDS011;21762;54.480;18.556;2023-06-04T09:28:39;1.90;;;1.25;;
35188;SDS011;21762;54.480;18.556;2023-06-04T09:31:09;1.10;;;0.73;;
35188;SDS011;21762;54.480;18.556;2023-06-04T09:33:42;2.20;;;0.90;;
35188;SDS011;21762;54.480;18.556;2023-06-04T09:36:13;1.70;;;0.90;;
35188;SDS011;21762;54.480;18.556;2023-06-04T09:38:43;2.58;;;1.25;;
35188;SDS011;21762;54.480;18.556;2023-06-04T09:41:16;3.92;;;0.95;;
35188;SDS011;21762;54.480;18.556;2023-06-04T09:43:51;1.70;;;0.85;;
35188;SDS011;21762;54.480;18.556;2023-06-04T09:46:20;2.22;;;1.42;;
35188;SDS011;21762;54.480;18.556;2023-06-04T09:48:58;2.15;;;1.10;;
35188;SDS011;21762;54.480;18.556;2023-06-04T09:51:28;3.60;;;0.70;;
35188;SDS011;21762;54.480;18.556;2023-06-04T09:54:00;6.72;;;1.10;;
35188;SDS011;21762;54.480;18.556;2023-06-04T09:56:30;3.33;;;0.88;;
35188;SDS011;21762;54.480;18.556;2023-06-04T09:59:08;4.22;;;0.60;;
35188;SDS011;21762;54.480;18.556;2023-06-04T10:01:38;1.30;;;0.73;;
35188;SDS011;21762;54.480;18.556;2023-06-04T10:04:08;0.80;;;0.52;;
35188;SDS011;21762;54.480;18.556;2023-06-04T10:06:41;1.95;;;1.00;;
35188;SDS011;21762;54.480;18.556;2023-06-04T10:09:12;4.40;;;1.00;;
35188;SDS011;21762;54.480;18.556;2023-06-04T10:11:46;3.85;;;0.95;;
35188;SDS011;21762;54.480;18.556;2023-06-04T10:14:19;1.10;;;1.00;;
35188;SDS011;21762;54.480;18.556;2023-06-04T10:16:51;2.25;;;0.90;;
35188;SDS011;21762;54.480;18.556;2023-06-04T10:19:19;4.85;;;1.30;;
35188;SDS011;21762;54.480;18.556;2023-06-04T10:21:50;4.20;;;0.90;;
35188;SDS011;21762;54.480;18.556;2023-06-04T10:24:22;3.30;;;1.02;;
35188;SDS011;21762;54.480;18.556;2023-06-04T10:26:53;4.78;;;0.85;;
35188;SDS011;21762;54.480;18.556;2023-06-04T10:29:23;0.93;;;0.60;;
35188;SDS011;21762;54.480;18.556;2023-06-04T10:31:54;2.58;;;1.17;;
35188;SDS011;21762;54.480;18.556;2023-06-04T10:34:23;3.25;;;0.90;;
35188;SDS011;21762;54.480;18.556;2023-06-04T10:36:55;1.83;;;0.88;;
35188;SDS011;21762;54.480;18.556;2023-06-04T10:39:28;1.52;;;0.80;;
35188;SDS011;21762;54.480;18.556;2023-06-04T10:41:59;2.72;;;1.00;;
35188;SDS011;21762;54.480;18.556;2023-06-04T10:44:29;2.03;;;0.57;;
35188;SDS011;21762;54.480;18.556;2023-06-04T10:46:59;1.23;;;0.90;;
35188;SDS011;21762;54.480;18.556;2023-06-04T10:49:28;2.72;;;0.73;;
35188;SDS011;21762;54.480;18.556;2023-06-04T10:51:58;1.83;;;0.70;;
35188;SDS011;21762;54.480;18.556;2023-06-04T10:54:40;1.08;;;0.52;;
35188;SDS011;21762;54.480;18.556;2023-06-04T10:57:10;4.95;;;0.80;;
35188;SDS011;21762;54.480;18.556;2023-06-04T10:59:39;1.20;;;0.40;;
35188;SDS011;21762;54.480;18.556;2023-06-04T11:02:08;3.25;;;0.60;;
35188;SDS011;21762;54.480;18.556;2023-06-04T11:04:37;0.85;;;0.50;;
35188;SDS011;21762;54.480;18.556;2023-06-04T11:07:07;2.33;;;0.70;;
35188;SDS011;21762;54.480;18.556;2023-06-04T11:09:37;3.30;;;0.40;;
35188;SDS011;21762;54.480;18.556;2023-06-04T11:12:08;0.65;;;0.50;;
35188;SDS011;21762;54.480;18.556;2023-06-04T11:14:37;1.25;;;0.50;;
35188;SDS011;21762;54.480;18.556;2023-06-04T11:17:09;2.03;;;0.60;;
35188;SDS011;21762;54.480;18.556;2023-06-04T11:19:39;1.33;;;0.75;;
35188;SDS011;21762;54.480;18.556;2023-06-04T11:22:10;0.88;;;0.60;;
35188;SDS011;21762;54.480;18.556;2023-06-04T11:24:39;1.08;;;0.52;;
35188;SDS011;21762;54.480;18.556;2023-06-04T11:27:10;3.75;;;0.80;;
35188;SDS011;21762;54.480;18.556;2023-06-04T11:29:43;2.83;;;0.40;;
35188;SDS011;21762;54.480;18.556;2023-06-04T11:32:21;1.15;;;0.50;;
35188;SDS011;21762;54.480;18.556;2023-06-04T11:34:50;1.17;;;0.45;;
35188;SDS011;21762;54.480;18.556;2023-06-04T11:37:19;2.38;;;0.68;;
35188;SDS011;21762;54.480;18.556;2023-06-04T11:39:48;1.45;;;0.82;;
35188;SDS011;21762;54.480;18.556;2023-06-04T11:42:18;2.55;;;0.80;;
35188;SDS011;21762;54.480;18.556;2023-06-04T11:44:47;1.42;;;0.75;;
35188;SDS011;21762;54.480;18.556;2023-06-04T11:47:15;1.70;;;0.50;;
35188;SDS011;21762;54.480;18.556;2023-06-04T11:49:44;1.10;;;0.80;;
35188;SDS011;21762;54.480;18.556;2023-06-04T11:52:14;3.15;;;0.60;;
35188;SDS011;21762;54.480;18.556;2023-06-04T11:54:47;1.27;;;0.73;;
35188;SDS011;21762;54.480;18.556;2023-06-04T11:57:15;1.00;;;0.60;;
35188;SDS011;21762;54.480;18.556;2023-06-04T11:59:46;0.95;;;0.45;;
35188;SDS011;21762;54.480;18.556;2023-06-04T12:02:14;1.95;;;0.65;;
35188;SDS011;21762;54.480;18.556;2023-06-04T12:04:43;1.33;;;0.65;;
35188;SDS011;21762;54.480;18.556;2023-06-04T12:07:18;3.35;;;0.90;;
35188;SDS011;21762;54.480;18.556;2023-06-04T12:09:51;1.38;;;0.70;;
35188;SDS011;21762;54.480;18.556;2023-06-04T12:12:22;0.93;;;0.60;;
35188;SDS011;21762;54.480;18.556;2023-06-04T12:15:00;0.90;;;0.80;;
35188;SDS011;21762;54.480;18.556;2023-06-04T12:17:30;2.25;;;0.60;;
35188;SDS011;21762;54.480;18.556;2023-06-04T12:19:59;2.60;;;0.55;;
35188;SDS011;21762;54.480;18.556;2023-06-04T12:22:30;1.23;;;0.90;;
35188;SDS011;21762;54.480;18.556;2023-06-04T12:24:59;1.17;;;0.70;;
35188;SDS011;21762;54.480;18.556;2023-06-04T12:27:31;0.98;;;0.60;;
35188;SDS011;21762;54.480;18.556;2023-06-04T12:30:02;2.17;;;0.57;;
35188;SDS011;21762;54.480;18.556;2023-06-04T12:32:34;4.47;;;0.68;;
35188;SDS011;21762;54.480;18.556;2023-06-04T12:35:03;0.80;;;0.35;;
35188;SDS011;21762;54.480;18.556;2023-06-04T12:37:33;2.85;;;0.60;;
35188;SDS011;21762;54.480;18.556;2023-06-04T12:40:02;2.78;;;0.40;;
35188;SDS011;21762;54.480;18.556;2023-06-04T12:42:34;4.47;;;0.50;;
35188;SDS011;21762;54.480;18.556;2023-06-04T12:45:03;0.60;;;0.60;;
35188;SDS011;21762;54.480;18.556;2023-06-04T12:47:33;2.72;;;0.43;;
35188;SDS011;21762;54.480;18.556;2023-06-04T12:50:01;0.70;;;0.50;;
35188;SDS011;21762;54.480;18.556;2023-06-04T12:52:30;1.10;;;0.60;;
35188;SDS011;21762;54.480;18.556;2023-06-04T12:54:59;1.45;;;0.50;;
35188;SDS011;21762;54.480;18.556;2023-06-04T12:57:28;0.40;;;0.30;;
35188;SDS011;21762;54.480;18.556;2023-06-04T12:59:58;2.55;;;0.40;;
35188;SDS011;21762;54.480;18.556;2023-06-04T13:02:27;1.05;;;0.45;;
35188;SDS011;21762;54.480;18.556;2023-06-04T13:04:56;2.13;;;0.60;;
35188;SDS011;21762;54.480;18.556;2023-06-04T13:07:25;1.02;;;0.60;;
35188;SDS011;21762;54.480;18.556;2023-06-04T13:09:54;0.70;;;0.32;;
35188;SDS011;21762;54.480;18.556;2023-06-04T13:12:23;4.18;;;0.60;;
35188;SDS011;21762;54.480;18.556;2023-06-04T13:14:52;2.42;;;0.47;;
35188;SDS011;21762;54.480;18.556;2023-06-04T13:17:23;0.82;;;0.60;;
35188;SDS011;21762;54.480;18.556;2023-06-04T13:19:52;0.80;;;0.38;;
35188;SDS011;21762;54.480;18.556;2023-06-04T13:22:21;3.40;;;0.63;;
35188;SDS011;21762;54.480;18.556;2023-06-04T13:24:49;2.08;;;0.55;;
35188;SDS011;21762;54.480;18.556;2023-06-04T13:27:18;3.17;;;0.47;;
35188;SDS011;21762;54.480;18.556;2023-06-04T13:29:47;3.80;;;0.28;;
35188;SDS011;21762;54.480;18.556;2023-06-04T13:32:16;1.38;;;0.40;;
35188;SDS011;21762;54.480;18.556;2023-06-04T13:34:46;1.65;;;1.25;;
35188;SDS011;21762;54.480;18.556;2023-06-04T13:37:15;0.60;;;0.60;;
35188;SDS011;21762;54.480;18.556;2023-06-04T13:39:43;2.72;;;0.32;;
35188;SDS011;21762;54.480;18.556;2023-06-04T13:42:12;0.40;;;0.30;;
35188;SDS011;21762;54.480;18.556;2023-06-04T13:44:41;0.63;;;0.45;;
35188;SDS011;21762;54.480;18.556;2023-06-04T13:47:10;2.30;;;0.40;;
35188;SDS011;21762;54.480;18.556;2023-06-04T13:49:38;1.23;;;0.30;;
35188;SDS011;21762;54.480;18.556;2023-06-04T13:52:08;0.60;;;0.40;;
35188;SDS011;21762;54.480;18.556;2023-06-04T13:54:37;0.95;;;0.40;;
35188;SDS011;21762;54.480;18.556;2023-06-04T13:57:06;0.55;;;0.28;;
35188;SDS011;21762;54.480;18.556;2023-06-04T13:59:39;0.95;;;0.40;;
35188;SDS011;21762;54.480;18.556;2023-06-04T14:02:08;0.65;;;0.35;;
35188;SDS011;21762;54.480;18.556;2023-06-04T14:04:37;0.63;;;0.40;;
35188;SDS011;21762;54.480;18.556;2023-06-04T14:07:06;2.45;;;0.40;;
35188;SDS011;21762;54.480;18.556;2023-06-04T14:09:36;3.85;;;0.47;;
35188;SDS011;21762;54.480;18.556;2023-06-04T14:12:05;2.25;;;0.40;;
35188;SDS011;21762;54.480;18.556;2023-06-04T14:14:34;0.57;;;0.40;;
35188;SDS011;21762;54.480;18.556;2023-06-04T14:17:04;0.95;;;0.52;;
35188;SDS011;21762;54.480;18.556;2023-06-04T14:19:33;0.90;;;0.30;;
35188;SDS011;21762;54.480;18.556;2023-06-04T14:22:02;1.65;;;0.40;;
35188;SDS011;21762;54.480;18.556;2023-06-04T14:24:31;2.40;;;0.50;;
35188;SDS011;21762;54.480;18.556;2023-06-04T14:27:01;0.77;;;0.30;;
35188;SDS011;21762;54.480;18.556;2023-06-04T14:29:29;0.80;;;0.60;;
35188;SDS011;21762;54.480;18.556;2023-06-04T14:31:58;0.60;;;0.30;;
35188;SDS011;21762;54.480;18.556;2023-06-04T14:34:27;1.90;;;0.50;;
35188;SDS011;21762;54.480;18.556;2023-06-04T14:36:56;3.70;;;0.35;;
35188;SDS011;21762;54.480;18.556;2023-06-04T14:39:26;0.90;;;0.30;;
35188;SDS011;21762;54.480;18.556;2023-06-04T14:41:55;0.50;;;0.30;;
35188;SDS011;21762;54.480;18.556;2023-06-04T14:44:25;1.00;;;0.35;;
35188;SDS011;21762;54.480;18.556;2023-06-04T14:46:54;1.42;;;0.35;;
35188;SDS011;21762;54.480;18.556;2023-06-04T14:49:23;2.92;;;0.50;;
35188;SDS011;21762;54.480;18.556;2023-06-04T14:51:51;0.95;;;0.43;;
35188;SDS011;21762;54.480;18.556;2023-06-04T14:54:20;0.60;;;0.20;;
35188;SDS011;21762;54.480;18.556;2023-06-04T14:56:49;2.22;;;0.40;;
35188;SDS011;21762;54.480;18.556;2023-06-04T14:59:18;1.38;;;0.50;;